createdAt,value
2022-10-23T00:01:17.448Z,5.00
2022-10-23T00:03:45.142Z,4.13
2022-10-23T00:06:12.988Z,8.57
2022-10-23T00:08:40.885Z,7.33
2022-10-23T00:11:17.149Z,4.40
2022-10-23T00:13:44.100Z,4.83
2022-10-23T00:16:11.142Z,4.80
2022-10-23T00:18:39.124Z,3.97
2022-10-23T00:21:11.168Z,4.28
2022-10-23T00:23:38.214Z,4.20
2022-10-23T00:26:05.273Z,5.20
2022-10-23T00:28:32.086Z,3.17
2022-10-23T00:31:02.461Z,5.17
2022-10-23T00:33:29.453Z,6.88
2022-10-23T00:35:56.280Z,3.65
2022-10-23T00:38:23.070Z,3.63
2022-10-23T00:43:26.942Z,6.35
2022-10-23T00:45:54.122Z,5.35
2022-10-23T00:48:21.756Z,4.45
2022-10-23T00:50:49.502Z,6.97
2022-10-23T00:53:17.848Z,4.13
2022-10-23T00:55:47.231Z,4.30
2022-10-23T00:58:15.738Z,6.30
2022-10-23T01:00:48.488Z,5.20
2022-10-23T01:03:17.866Z,9.15
2022-10-23T01:05:53.474Z,4.55
2022-10-23T01:08:38.579Z,4.20
2022-10-23T01:11:15.954Z,8.15
2022-10-23T01:16:46.649Z,6.10
2022-10-23T01:19:38.679Z,4.95
2022-10-23T01:22:34.923Z,3.55
2022-10-23T01:25:16.843Z,4.18
2022-10-23T01:27:51.072Z,4.03
2022-10-23T01:30:18.325Z,4.88
2022-10-23T01:32:53.835Z,5.10
2022-10-23T01:35:25.541Z,3.47
2022-10-23T01:37:58.660Z,5.80
2022-10-23T01:40:54.603Z,3.00
2022-10-23T01:43:27.539Z,4.03
2022-10-23T01:46:00.928Z,3.17
2022-10-23T01:48:31.159Z,4.32
2022-10-23T01:51:02.426Z,2.70
2022-10-23T01:53:31.721Z,4.68
2022-10-23T01:56:01.128Z,3.05
2022-10-23T01:58:29.757Z,3.67
2022-10-23T02:01:01.440Z,3.97
2022-10-23T02:03:31.441Z,2.45
2022-10-23T02:05:58.556Z,3.15
2022-10-23T02:08:25.793Z,4.57
2022-10-23T02:11:03.417Z,1.65
2022-10-23T02:13:37.647Z,4.30
2022-10-23T02:16:24.072Z,2.05
2022-10-23T02:19:14.106Z,2.47
2022-10-23T02:21:49.109Z,2.50
2022-10-23T02:24:20.512Z,4.15
2022-10-23T02:26:54.070Z,2.65
2022-10-23T02:29:31.921Z,2.17
2022-10-23T02:31:58.783Z,5.90
2022-10-23T02:34:25.682Z,2.25
2022-10-23T02:36:52.665Z,2.35
2022-10-23T02:39:21.417Z,2.03
2022-10-23T02:42:06.815Z,3.15
2022-10-23T02:44:45.600Z,3.75
2022-10-23T02:47:27.495Z,1.83
2022-10-23T02:50:27.978Z,2.03
2022-10-23T02:53:09.989Z,2.20
2022-10-23T02:55:46.449Z,2.40
2022-10-23T02:58:56.639Z,2.45
2022-10-23T03:01:29.245Z,3.20
2022-10-23T03:03:59.357Z,2.10
2022-10-23T03:06:26.385Z,2.25
2022-10-23T03:08:59.134Z,2.20
2022-10-23T03:11:26.429Z,2.13
2022-10-23T03:13:53.315Z,2.38
2022-10-23T03:16:20.132Z,2.50
2022-10-23T03:18:46.977Z,6.80
2022-10-23T03:21:13.787Z,3.35
2022-10-23T03:23:40.697Z,2.90
2022-10-23T03:26:07.733Z,2.20
2022-10-23T03:28:35.584Z,5.13
2022-10-23T03:31:03.348Z,2.50
2022-10-23T03:33:33.286Z,3.03
2022-10-23T03:36:00.126Z,2.20
2022-10-23T03:38:26.925Z,4.38
2022-10-23T03:40:53.840Z,3.55
2022-10-23T03:43:20.663Z,4.15
2022-10-23T03:45:47.487Z,4.05
2022-10-23T03:48:14.853Z,2.08
2022-10-23T03:50:41.701Z,2.25
2022-10-23T03:53:08.501Z,1.70
2022-10-23T03:55:35.353Z,2.38
2022-10-23T03:58:02.259Z,3.38
2022-10-23T04:00:29.131Z,4.40
2022-10-23T04:02:55.935Z,2.50
2022-10-23T04:05:22.796Z,2.22
2022-10-23T04:07:49.605Z,2.10
2022-10-23T04:10:16.673Z,2.40
2022-10-23T04:12:43.730Z,2.92
2022-10-23T04:15:10.911Z,5.68
2022-10-23T04:17:37.698Z,2.28
2022-10-23T04:20:04.789Z,4.45
2022-10-23T04:22:31.557Z,2.20
2022-10-23T04:24:58.369Z,1.75
2022-10-23T04:27:25.192Z,1.85
2022-10-23T04:29:54.332Z,1.95
2022-10-23T04:32:23.669Z,4.00
2022-10-23T04:34:50.525Z,4.05
2022-10-23T04:37:17.376Z,4.80
2022-10-23T04:39:44.178Z,4.85
2022-10-23T04:42:10.982Z,2.50
2022-10-23T04:44:37.771Z,3.47
2022-10-23T04:47:04.624Z,4.82
2022-10-23T04:49:31.479Z,2.50
2022-10-23T04:51:58.348Z,5.70
2022-10-23T04:54:25.146Z,3.25
2022-10-23T04:56:51.972Z,2.70
2022-10-23T04:59:18.802Z,4.93
2022-10-23T05:01:45.727Z,2.35
2022-10-23T05:04:13.994Z,2.40
2022-10-23T05:06:40.853Z,5.20
2022-10-23T05:09:07.645Z,2.60
2022-10-23T05:11:34.435Z,7.57
2022-10-23T05:14:01.248Z,3.63
2022-10-23T05:17:00.122Z,4.00
2022-10-23T05:19:35.063Z,2.00
2022-10-23T05:22:02.463Z,2.15
2022-10-23T05:24:30.230Z,2.17
2022-10-23T05:26:57.105Z,7.03
2022-10-23T05:29:23.892Z,2.40
2022-10-23T05:31:54.321Z,2.17
2022-10-23T05:34:23.898Z,4.25
2022-10-23T05:36:50.777Z,2.88
2022-10-23T05:39:17.708Z,2.40
2022-10-23T05:41:44.758Z,3.00
2022-10-23T05:44:11.596Z,2.92
2022-10-23T05:46:44.723Z,3.35
2022-10-23T05:49:11.501Z,2.22
2022-10-23T05:51:39.596Z,2.00
2022-10-23T05:54:10.122Z,2.58
2022-10-23T05:56:39.015Z,5.43
2022-10-23T05:59:07.734Z,4.90
2022-10-23T06:01:34.689Z,2.17
2022-10-23T06:04:02.395Z,1.95
2022-10-23T06:06:29.319Z,1.95
2022-10-23T06:08:56.307Z,3.95
2022-10-23T06:11:23.469Z,1.45
2022-10-23T06:13:50.277Z,6.13
2022-10-23T06:16:21.004Z,4.07
2022-10-23T06:18:47.903Z,2.08
2022-10-23T06:21:15.397Z,1.88
2022-10-23T06:23:43.444Z,1.50
2022-10-23T06:26:12.615Z,3.30
2022-10-23T06:28:39.618Z,1.77
2022-10-23T06:31:12.509Z,2.40
2022-10-23T06:33:40.098Z,2.47
2022-10-23T06:36:10.335Z,3.07
2022-10-23T06:38:40.321Z,1.70
2022-10-23T06:41:13.388Z,3.17
2022-10-23T06:43:40.369Z,5.33
2022-10-23T06:46:07.765Z,1.70
2022-10-23T06:48:34.577Z,4.10
2022-10-23T06:51:06.543Z,1.90
2022-10-23T06:53:33.696Z,2.33
2022-10-23T06:56:01.864Z,1.83
2022-10-23T06:58:29.216Z,4.57
2022-10-23T07:00:56.762Z,2.00
2022-10-23T07:03:23.810Z,3.10
2022-10-23T07:05:50.794Z,2.20
2022-10-23T07:08:17.791Z,2.43
2022-10-23T07:10:45.374Z,2.17
2022-10-23T07:13:12.616Z,1.83
2022-10-23T07:15:40.442Z,2.07
2022-10-23T07:18:07.723Z,3.67
2022-10-23T07:20:34.897Z,1.83
2022-10-23T07:23:01.809Z,3.43
2022-10-23T07:25:28.783Z,1.47
2022-10-23T07:27:56.672Z,2.60
2022-10-23T07:30:24.356Z,2.10
2022-10-23T07:32:51.296Z,1.87
2022-10-23T07:35:18.727Z,1.90
2022-10-23T07:37:45.908Z,2.43
2022-10-23T07:40:13.239Z,1.90
2022-10-23T07:42:40.407Z,1.77
2022-10-23T07:45:08.763Z,2.00
2022-10-23T07:47:35.766Z,3.43
2022-10-23T07:50:02.961Z,2.53
2022-10-23T07:52:32.184Z,2.50
2022-10-23T07:55:02.657Z,1.70
2022-10-23T07:57:29.689Z,2.80
2022-10-23T07:59:56.596Z,2.00
2022-10-23T08:02:23.464Z,1.57
2022-10-23T08:04:50.700Z,2.53
2022-10-23T08:07:17.691Z,1.70
2022-10-23T08:09:44.550Z,2.03
2022-10-23T08:12:11.445Z,1.80
2022-10-23T08:14:38.328Z,5.00
2022-10-23T08:17:05.729Z,2.40
2022-10-23T08:19:32.623Z,1.70
2022-10-23T08:21:59.449Z,1.63
2022-10-23T08:24:26.231Z,1.73
2022-10-23T08:26:53.141Z,1.77
2022-10-23T08:29:19.966Z,1.73
2022-10-23T08:31:47.079Z,3.97
2022-10-23T08:34:14.402Z,5.33
2022-10-23T08:36:41.455Z,6.20
2022-10-23T08:39:08.423Z,5.07
2022-10-23T08:41:42.802Z,2.17
2022-10-23T08:44:31.097Z,1.87
2022-10-23T08:47:06.908Z,1.30
2022-10-23T08:49:59.213Z,6.27
2022-10-23T08:52:47.067Z,2.20
2022-10-23T08:55:22.320Z,3.97
2022-10-23T08:58:11.004Z,1.40
2022-10-23T09:00:38.045Z,3.30
2022-10-23T09:03:05.753Z,1.87
2022-10-23T09:05:43.384Z,1.30
2022-10-23T09:08:48.491Z,1.60
2022-10-23T09:12:03.866Z,1.97
2022-10-23T09:14:39.532Z,2.53
2022-10-23T09:17:27.020Z,1.50
2022-10-23T09:20:14.675Z,1.50
2022-10-23T09:22:42.907Z,2.37
2022-10-23T09:25:20.497Z,4.23
2022-10-23T09:32:02.502Z,1.50
2022-10-23T09:38:36.001Z,1.83
2022-10-23T09:51:45.505Z,2.87
2022-10-23T09:54:21.654Z,1.10
2022-10-23T09:57:35.658Z,1.33
2022-10-23T10:03:40.423Z,1.97
2022-10-23T10:06:29.660Z,2.00
2022-10-23T10:12:44.171Z,2.23
2022-10-23T10:15:40.697Z,1.43
2022-10-23T10:18:11.584Z,2.23
2022-10-23T10:20:54.246Z,1.30
2022-10-23T10:23:35.734Z,1.23
2022-10-23T10:26:05.234Z,1.37
2022-10-23T10:29:04.533Z,1.47
2022-10-23T10:32:24.812Z,0.97
2022-10-23T10:35:08.518Z,1.20
2022-10-23T10:38:15.477Z,1.53
2022-10-23T10:41:45.683Z,1.20
2022-10-23T10:44:13.968Z,1.87
2022-10-23T10:46:47.173Z,1.10
2022-10-23T10:49:46.983Z,1.40
2022-10-23T10:53:03.228Z,3.40
2022-10-23T10:55:43.319Z,1.67
2022-10-23T10:58:21.511Z,0.90
2022-10-23T11:00:57.080Z,1.17
2022-10-23T11:03:42.610Z,2.53
2022-10-23T11:06:28.057Z,1.00
2022-10-23T11:09:03.850Z,1.43
2022-10-23T11:11:42.159Z,1.50
2022-10-23T11:14:21.564Z,4.30
2022-10-23T11:17:11.149Z,1.30
2022-10-23T11:19:50.250Z,1.00
2022-10-23T11:22:29.078Z,1.33
2022-10-23T11:29:55.581Z,7.53
2022-10-23T11:39:47.359Z,1.30
2022-10-23T11:46:31.380Z,4.10
2022-10-23T11:48:59.127Z,1.40
2022-10-23T11:52:50.625Z,3.30
2022-10-23T11:56:06.735Z,1.93
2022-10-23T12:14:03.545Z,1.83
2022-10-23T13:58:23.280Z,1.80
2022-10-23T14:01:10.788Z,1.50
2022-10-23T14:10:08.005Z,1.20
2022-10-23T15:27:14.984Z,5.10
2022-10-23T15:29:41.973Z,2.53
2022-10-23T15:32:10.373Z,3.27
2022-10-23T15:34:37.766Z,2.83
2022-10-23T15:37:05.445Z,3.63
2022-10-23T15:39:35.679Z,5.27
2022-10-23T15:42:05.664Z,3.43
2022-10-23T15:44:33.501Z,11.50
2022-10-23T15:47:00.754Z,4.73
2022-10-23T15:49:31.852Z,6.47
2022-10-23T15:51:59.369Z,5.23
2022-10-23T15:54:29.237Z,4.70
2022-10-23T15:56:58.876Z,7.30
2022-10-23T15:59:26.907Z,3.83
2022-10-23T16:01:55.530Z,3.70
2022-10-23T16:04:22.781Z,2.90
2022-10-23T16:06:50.057Z,4.50
2022-10-23T16:09:17.442Z,4.93
2022-10-23T16:11:44.757Z,3.40
2022-10-23T16:14:17.234Z,2.97
2022-10-23T16:16:44.410Z,3.40
2022-10-23T16:19:11.929Z,3.23
2022-10-23T16:21:38.961Z,3.83
2022-10-23T16:24:07.672Z,3.60
2022-10-23T16:26:35.412Z,4.43
2022-10-23T16:29:05.533Z,4.30
2022-10-23T16:31:33.016Z,5.90
2022-10-23T16:34:01.177Z,6.90
2022-10-23T16:36:29.280Z,6.37
2022-10-23T16:38:56.253Z,6.10
2022-10-23T16:41:23.082Z,6.23
2022-10-23T16:43:50.164Z,5.17
2022-10-23T16:46:20.748Z,5.20
2022-10-23T16:48:49.131Z,4.23
2022-10-23T16:51:19.465Z,4.07
2022-10-23T16:53:47.004Z,4.83
2022-10-23T16:56:17.513Z,3.87
2022-10-23T16:58:44.466Z,4.63
2022-10-23T17:01:20.966Z,6.20
2022-10-23T17:03:50.377Z,3.20
2022-10-23T17:06:23.169Z,5.20
2022-10-23T17:08:50.928Z,5.10
2022-10-23T17:11:29.282Z,5.00
2022-10-23T17:14:07.795Z,6.43
2022-10-23T17:16:46.985Z,5.80
2022-10-23T17:19:33.013Z,4.87
2022-10-23T17:22:02.384Z,6.83
2022-10-23T17:24:29.193Z,5.40
2022-10-23T17:26:56.257Z,5.47
2022-10-23T17:29:23.093Z,6.53
2022-10-23T17:31:51.306Z,6.00
2022-10-23T17:34:22.847Z,5.50
2022-10-23T17:36:52.212Z,9.77
2022-10-23T17:39:23.075Z,6.00
2022-10-23T17:41:50.101Z,5.67
2022-10-23T17:44:16.949Z,4.83
2022-10-23T17:46:43.888Z,9.47
2022-10-23T17:49:11.193Z,11.00
2022-10-23T17:51:38.540Z,3.43
2022-10-23T17:54:08.399Z,5.27
2022-10-23T17:56:37.677Z,7.70
2022-10-23T17:59:14.093Z,4.93
2022-10-23T18:01:43.819Z,4.17
2022-10-23T18:04:10.855Z,6.03
2022-10-23T18:06:45.362Z,5.40
2022-10-23T18:09:13.043Z,6.13
2022-10-23T18:11:46.818Z,5.27
2022-10-23T18:14:16.425Z,7.13
2022-10-23T18:16:43.406Z,8.43
2022-10-23T18:19:11.065Z,7.10
2022-10-23T18:21:38.073Z,6.80
2022-10-23T18:24:05.290Z,3.50
2022-10-23T18:26:39.161Z,5.83
2022-10-23T18:29:09.808Z,6.57
2022-10-23T18:31:37.654Z,8.70
2022-10-23T18:34:24.752Z,9.40
2022-10-23T18:36:53.765Z,9.57
2022-10-23T18:39:24.289Z,10.80
2022-10-23T18:41:53.961Z,6.50
2022-10-23T18:44:21.758Z,6.47
2022-10-23T18:46:49.772Z,7.00
2022-10-23T18:49:18.190Z,7.07
2022-10-23T18:51:45.582Z,6.30
2022-10-23T18:54:15.404Z,6.17
2022-10-23T18:56:42.784Z,7.73
2022-10-23T18:59:18.792Z,5.53
2022-10-23T19:01:45.787Z,9.17
2022-10-23T19:04:15.789Z,6.10
2022-10-23T19:06:42.920Z,8.00
2022-10-23T19:09:13.931Z,8.03
2022-10-23T19:11:41.416Z,6.60
2022-10-23T19:14:08.687Z,7.30
2022-10-23T19:17:01.570Z,9.60
2022-10-23T19:19:41.049Z,7.90
2022-10-23T19:22:10.183Z,7.77
2022-10-23T19:24:40.793Z,9.57
2022-10-23T19:27:08.890Z,6.73
2022-10-23T19:29:40.847Z,13.33
2022-10-23T19:32:07.852Z,7.50
2022-10-23T19:34:34.720Z,9.87
2022-10-23T19:37:01.588Z,6.93
2022-10-23T19:39:28.654Z,8.03
2022-10-23T19:41:55.811Z,6.90
2022-10-23T19:44:22.625Z,7.20
2022-10-23T19:46:49.719Z,6.30
2022-10-23T19:49:17.735Z,9.03
2022-10-23T19:51:51.266Z,13.87
2022-10-23T19:54:20.102Z,10.30
2022-10-23T19:56:47.297Z,10.70
2022-10-23T19:59:14.625Z,14.80
2022-10-23T20:01:45.051Z,6.07
2022-10-23T20:04:16.026Z,6.67
2022-10-23T20:06:42.851Z,10.10
2022-10-23T20:09:10.000Z,6.53
2022-10-23T20:11:39.973Z,8.30
2022-10-23T20:14:07.617Z,7.70
2022-10-23T20:16:37.594Z,8.47
2022-10-23T20:19:07.489Z,11.83
2022-10-23T20:21:39.056Z,8.73
2022-10-23T20:24:06.513Z,6.83
2022-10-23T20:26:33.501Z,13.97
2022-10-23T20:29:00.323Z,8.83
2022-10-23T20:31:28.197Z,7.57
2022-10-23T20:33:56.263Z,7.40
2022-10-23T20:36:30.588Z,8.77
2022-10-23T20:38:59.073Z,11.73
2022-10-23T20:41:28.547Z,7.60
2022-10-23T20:43:56.229Z,10.17
2022-10-23T20:46:23.499Z,10.40
2022-10-23T20:48:50.910Z,8.60
2022-10-23T20:51:20.261Z,11.10
2022-10-23T20:53:51.389Z,13.37
2022-10-23T20:56:24.278Z,13.30
2022-10-23T20:58:51.222Z,9.73
2022-10-23T21:01:18.870Z,17.60
2022-10-23T21:03:51.083Z,11.50
2022-10-23T21:06:19.485Z,13.13
2022-10-23T21:08:46.749Z,14.17
2022-10-23T21:11:15.750Z,10.73
2022-10-23T21:13:44.225Z,9.77
2022-10-23T21:16:24.931Z,11.00
2022-10-23T21:18:56.308Z,9.23
2022-10-23T21:21:23.894Z,10.73
2022-10-23T21:23:53.117Z,9.93
2022-10-23T21:26:21.736Z,17.70
2022-10-23T21:28:56.289Z,9.50
2022-10-23T21:31:37.823Z,9.07
2022-10-23T21:34:05.393Z,11.63
2022-10-23T21:36:34.301Z,10.03
2022-10-23T21:39:04.361Z,12.93
2022-10-23T21:41:33.316Z,13.50
2022-10-23T21:44:02.672Z,8.10
2022-10-23T21:46:31.173Z,11.20
2022-10-23T21:49:00.130Z,17.20
2022-10-23T21:51:37.150Z,15.33
2022-10-23T21:54:07.132Z,13.03
2022-10-23T21:56:48.715Z,19.60
2022-10-23T21:59:18.395Z,16.23
2022-10-23T22:01:46.876Z,18.70
2022-10-23T22:04:17.192Z,12.40
2022-10-23T22:06:45.232Z,14.77
2022-10-23T22:09:14.489Z,13.33
2022-10-23T22:11:41.681Z,17.63
2022-10-23T22:14:08.508Z,12.67
2022-10-23T22:16:35.376Z,15.67
2022-10-23T22:19:02.584Z,15.53
2022-10-23T22:21:30.505Z,10.00
2022-10-23T22:23:59.187Z,16.83
2022-10-23T22:26:37.950Z,14.10
2022-10-23T22:29:12.156Z,13.97
2022-10-23T22:31:42.996Z,12.30
2022-10-23T22:34:25.315Z,16.00
2022-10-23T22:37:00.942Z,12.93
2022-10-23T22:39:27.745Z,12.53
2022-10-23T22:41:54.573Z,9.00
2022-10-23T22:44:21.395Z,10.93
2022-10-23T22:46:48.243Z,10.90
2022-10-23T22:49:15.092Z,14.20
2022-10-23T22:51:42.007Z,11.83
2022-10-23T22:54:08.952Z,14.50
2022-10-23T22:56:35.933Z,14.63
2022-10-23T22:59:03.837Z,12.33
2022-10-23T23:01:34.603Z,19.53
2022-10-23T23:04:13.796Z,10.53
2022-10-23T23:06:48.730Z,18.97
2022-10-23T23:09:18.024Z,14.20
2022-10-23T23:11:51.905Z,9.07
2022-10-23T23:14:23.191Z,19.27
2022-10-23T23:16:54.589Z,12.50
2022-10-23T23:19:23.262Z,12.43
2022-10-23T23:21:50.527Z,12.67
2022-10-23T23:24:17.490Z,10.77
2022-10-23T23:26:44.376Z,8.03
2022-10-23T23:29:11.503Z,13.60
2022-10-23T23:31:38.675Z,6.77
2022-10-23T23:34:05.515Z,9.30
2022-10-23T23:36:32.782Z,7.50
2022-10-23T23:39:00.389Z,11.03
2022-10-23T23:41:28.365Z,8.87
2022-10-23T23:43:57.787Z,10.10
2022-10-23T23:46:26.168Z,9.00
2022-10-23T23:48:53.024Z,10.93
2022-10-23T23:51:23.134Z,11.67
2022-10-23T23:53:50.905Z,15.63
2022-10-23T23:56:18.879Z,10.93
2022-10-23T23:58:45.853Z,14.17
